Terminal Aerodrome Forecast
Issued by NWS

Home | Current Version | Previous Version | Text Only | Print | Product List | Glossary Off
Versions: 1 2 3 4 5 6 7 8 9 10 11 12 13 14 15 16 17 18 19 20 21 22 23 24 25 26 27 28

982
FTUS43 KABR 212027 AAA
TAFPIR
TAF AMD
KPIR 212027Z 2120/2218 29007KT P6SM SCT008
     FM220100 30007KT 5SM BR SCT015
     FM220400 30006KT 2SM BR BKN015
     FM221200 30010KT P6SM BKN015
     FM221700 30011KT P6SM BKN035=

USA.gov is the U.S. government's official web portal to all federal, state and local government web resources and services.